Time;durP1;ratioP1;P1;durP2;ratioP2;P2;SDS_P1;SDS_P2;PMS_P1;PMS_P2;Temp;Humidity;BMP_temperature;BMP_pressure;BME280_temperature;BME280_humidity;BME280_pressure;Samples;Min_cycle;Max_cycle;Signal;HPM_P1;HPM_P2
2022/06/13 00:00:15;;;;;;;20.02;8.68;;;12.60;99.90;;;;;;5040244;28;20037;-65
2022/06/13 00:02:40;;;;;;;23.17;8.93;;;12.60;99.90;;;;;;5038155;28;20064;-65
2022/06/13 00:05:08;;;;;;;21.15;9.00;;;12.60;99.90;;;;;;5039265;28;20334;-66
2022/06/13 00:07:34;;;;;;;21.85;8.73;;;12.70;99.90;;;;;;5033851;28;20037;-65
2022/06/13 00:10:00;;;;;;;24.45;9.73;;;12.70;99.90;;;;;;5058858;28;20041;-66
2022/06/13 00:12:26;;;;;;;25.80;9.07;;;12.60;99.90;;;;;;5043588;28;20044;-66
2022/06/13 00:14:52;;;;;;;24.80;9.57;;;12.70;99.90;;;;;;5045431;28;20040;-66
2022/06/13 00:17:18;;;;;;;22.33;9.73;;;12.70;99.90;;;;;;5046333;28;20041;-66
2022/06/13 00:19:44;;;;;;;23.30;10.18;;;12.70;99.90;;;;;;5071403;28;20090;-66
2022/06/13 00:22:09;;;;;;;28.13;9.95;;;12.70;99.90;;;;;;5041530;28;20072;-66
2022/06/13 00:24:36;;;;;;;25.95;10.02;;;12.70;99.90;;;;;;5038145;28;20049;-66
2022/06/13 00:27:02;;;;;;;23.45;10.18;;;12.70;99.90;;;;;;5077905;28;20040;-66
2022/06/13 00:29:28;;;;;;;25.42;10.60;;;12.80;99.90;;;;;;5026485;28;20059;-66
2022/06/13 00:31:53;;;;;;;28.13;10.20;;;12.80;99.90;;;;;;5024459;28;20090;-66
2022/06/13 00:34:19;;;;;;;27.98;11.07;;;12.80;99.90;;;;;;5044901;28;20455;-67
2022/06/13 00:36:45;;;;;;;32.92;11.02;;;12.90;99.90;;;;;;5070072;28;20037;-66
2022/06/13 00:39:10;;;;;;;25.92;10.30;;;12.90;99.90;;;;;;5044602;28;20048;-66
2022/06/13 00:41:38;;;;;;;28.70;10.68;;;12.90;99.90;;;;;;5068203;28;20041;-66
2022/06/13 00:44:26;;;;;;;25.77;10.68;;;12.90;99.90;;;;;;5043922;28;20029;-66
2022/06/13 00:46:53;;;;;;;34.30;11.80;;;12.90;99.90;;;;;;5042996;28;20029;-67
2022/06/13 00:49:27;;;;;;;23.67;11.10;;;12.80;99.90;;;;;;5045884;28;20036;-66
2022/06/13 00:52:18;;;;;;;32.63;12.07;;;12.90;99.90;;;;;;5035257;28;20037;-67
2022/06/13 00:54:45;;;;;;;30.20;11.15;;;12.90;99.90;;;;;;5035575;28;20711;-66
2022/06/13 00:57:22;;;;;;;32.15;11.38;;;12.90;99.90;;;;;;5040398;28;20402;-66
2022/06/13 00:59:51;;;;;;;34.60;11.23;;;12.90;99.90;;;;;;5040436;28;20042;-67
2022/06/13 01:02:17;;;;;;;30.92;11.40;;;12.90;99.90;;;;;;5039440;28;20517;-67
2022/06/13 01:04:43;;;;;;;28.88;11.85;;;13.00;99.90;;;;;;5040673;28;20025;-67
2022/06/13 01:07:12;;;;;;;31.23;11.93;;;13.00;99.90;;;;;;5058958;28;20479;-66
2022/06/13 01:12:25;;;;;;;29.27;11.45;;;13.00;99.90;;;;;;5044099;28;20047;-66
2022/06/13 01:15:12;;;;;;;31.67;11.85;;;13.00;99.90;;;;;;5042773;28;20028;-66
2022/06/13 01:17:49;;;;;;;34.20;12.93;;;13.00;99.90;;;;;;5043021;28;20683;-66
2022/06/13 01:20:39;;;;;;;33.90;12.88;;;13.00;99.90;;;;;;5064782;28;20122;-66
2022/06/13 01:23:41;;;;;;;38.28;12.63;;;13.00;99.90;;;;;;5040214;28;21307;-66
2022/06/13 01:26:31;;;;;;;31.35;12.35;;;13.00;99.90;;;;;;5077871;28;20053;-67
2022/06/13 01:29:21;;;;;;;31.67;12.05;;;13.00;99.90;;;;;;5038036;28;20489;-66
2022/06/13 01:32:08;;;;;;;32.30;12.48;;;13.00;99.90;;;;;;5069184;28;20043;-66
2022/06/13 01:34:43;;;;;;;36.95;12.32;;;13.00;99.90;;;;;;5043021;28;20045;-67
2022/06/13 01:37:20;;;;;;;36.95;12.88;;;13.00;99.90;;;;;;5042059;28;20539;-66
2022/06/13 01:40:07;;;;;;;32.83;12.80;;;12.90;99.90;;;;;;5031374;28;20048;-66
2022/06/13 01:43:00;;;;;;;36.85;13.80;;;13.00;99.90;;;;;;5066964;28;20044;-67
2022/06/13 01:45:40;;;;;;;31.25;13.07;;;12.90;99.90;;;;;;5061108;28;20680;-67
2022/06/13 01:48:29;;;;;;;32.42;12.00;;;12.90;99.90;;;;;;5055343;28;20494;-67
2022/06/13 01:51:33;;;;;;;29.30;12.88;;;12.90;99.90;;;;;;5073501;28;20386;-66
2022/06/13 01:54:02;;;;;;;29.95;11.68;;;13.00;99.90;;;;;;5062607;28;20071;-67
2022/06/13 01:56:35;;;;;;;32.58;11.43;;;12.90;99.90;;;;;;5073062;28;20048;-67
2022/06/13 01:59:18;;;;;;;31.55;11.10;;;13.00;99.90;;;;;;5042995;28;20041;-67
2022/06/13 02:01:50;;;;;;;26.10;10.93;;;13.00;99.90;;;;;;5028498;28;20648;-66
2022/06/13 02:04:31;;;;;;;29.42;11.73;;;13.10;99.90;;;;;;5036430;28;20242;-66
2022/06/13 02:07:22;;;;;;;29.70;11.45;;;12.90;99.90;;;;;;5038274;28;20087;-66
2022/06/13 02:09:54;;;;;;;27.35;10.70;;;13.00;99.90;;;;;;5037964;28;20052;-67
2022/06/13 02:12:23;;;;;;;31.35;11.23;;;12.90;99.90;;;;;;5038251;28;20048;-67
2022/06/13 02:14:54;;;;;;;27.83;11.20;;;12.90;99.90;;;;;;5073963;28;20055;-66
2022/06/13 02:17:28;;;;;;;26.05;10.55;;;12.90;99.90;;;;;;5040007;28;20486;-67
2022/06/13 02:20:05;;;;;;;22.65;9.25;;;12.80;99.90;;;;;;5073367;28;20044;-67
2022/06/13 02:22:47;;;;;;;25.27;9.90;;;12.90;99.90;;;;;;5077846;28;20590;-67
2022/06/13 02:25:29;;;;;;;29.55;10.32;;;12.90;99.90;;;;;;5047604;28;20514;-67
2022/06/13 02:28:05;;;;;;;24.53;10.13;;;12.90;99.90;;;;;;5031879;28;20170;-66
2022/06/13 02:30:45;;;;;;;26.30;10.27;;;12.90;99.90;;;;;;5061951;28;20310;-67
2022/06/13 02:33:18;;;;;;;28.48;10.20;;;12.90;99.90;;;;;;5054664;28;20047;-66
2022/06/13 02:35:45;;;;;;;;;;;12.80;99.90;;;;;;5039651;28;20036;-67
2022/06/13 02:38:37;;;;;;;28.85;12.45;;;12.80;99.90;;;;;;5064784;28;19974;-67
2022/06/13 02:41:16;;;;;;;33.40;11.57;;;12.80;99.90;;;;;;5063676;28;20372;-67
2022/06/13 02:43:50;;;;;;;31.95;12.15;;;12.80;99.90;;;;;;5039960;28;20036;-67
2022/06/13 02:46:35;;;;;;;31.63;11.95;;;12.80;99.90;;;;;;5066818;28;20500;-67
2022/06/13 02:49:13;;;;;;;36.97;13.15;;;12.70;99.90;;;;;;5068120;28;20150;-67
2022/06/13 02:51:45;;;;;;;33.92;12.98;;;12.80;99.90;;;;;;5056590;28;20039;-67
2022/06/13 02:54:13;;;;;;;33.92;12.82;;;12.70;99.90;;;;;;5041591;28;20040;-67
2022/06/13 03:00:25;;;;;;;38.85;13.20;;;12.60;99.90;;;;;;5034585;28;20048;-68
2022/06/13 03:03:04;;;;;;;37.63;13.35;;;12.60;99.90;;;;;;5033168;28;20041;-67
2022/06/13 03:05:35;;;;;;;32.45;14.07;;;12.60;99.90;;;;;;5030821;28;20045;-67
2022/06/13 03:08:15;;;;;;;36.03;14.90;;;12.60;99.90;;;;;;5073628;28;20040;-68
2022/06/13 03:10:57;;;;;;;37.90;14.40;;;12.60;99.90;;;;;;5036297;28;20041;-67
2022/06/13 03:13:23;;;;;;;43.38;17.77;;;12.60;99.90;;;;;;5036943;28;20492;-67
2022/06/13 03:15:55;;;;;;;44.95;20.27;;;12.60;99.90;;;;;;5037477;28;20037;-67
2022/06/13 03:18:27;;;;;;;46.20;18.77;;;12.50;99.90;;;;;;5037625;28;20068;-67
2022/06/13 03:21:08;;;;;;;49.58;17.80;;;12.50;99.90;;;;;;5056354;28;20483;-67
2022/06/13 03:23:40;;;;;;;43.88;16.88;;;12.60;99.90;;;;;;5041697;28;20047;-66
2022/06/13 03:26:37;;;;;;;37.53;15.15;;;12.60;99.90;;;;;;5056164;28;20029;-67
2022/06/13 03:29:38;;;;;;;45.63;16.40;;;12.50;99.90;;;;;;5069651;28;20080;-67
2022/06/13 03:32:12;;;;;;;43.65;17.25;;;12.60;99.90;;;;;;5015959;28;20077;-66
2022/06/13 03:34:45;;;;;;;42.58;15.85;;;12.60;99.90;;;;;;5051842;28;20048;-67
2022/06/13 03:37:18;;;;;;;36.75;15.70;;;12.50;99.90;;;;;;5033893;28;20041;-67
2022/06/13 03:39:50;;;;;;;39.75;16.50;;;12.50;99.90;;;;;;5032224;28;20053;-66
2022/06/13 03:42:27;;;;;;;38.95;16.30;;;12.50;99.90;;;;;;5035393;28;20513;-66
2022/06/13 03:45:16;;;;;;;45.63;17.35;;;12.60;99.90;;;;;;5070591;28;20075;-67
2022/06/13 03:47:51;;;;;;;49.33;17.55;;;12.60;99.90;;;;;;5064395;28;20049;-67
2022/06/13 03:50:26;;;;;;;47.25;17.98;;;12.80;99.90;;;;;;5039732;28;20475;-67
2022/06/13 03:53:06;;;;;;;46.95;18.73;;;12.70;99.90;;;;;;5067969;28;20051;-66
2022/06/13 03:55:41;;;;;;;51.50;19.40;;;12.70;99.90;;;;;;5047188;28;20091;-67
2022/06/13 03:58:20;;;;;;;51.42;19.40;;;12.70;99.90;;;;;;5038544;28;21066;-67
2022/06/13 04:01:00;;;;;;;48.35;18.48;;;12.80;99.90;;;;;;5068837;28;20041;-67
2022/06/13 04:03:27;;;;;;;53.58;19.50;;;12.80;99.90;;;;;;5058723;28;20037;-67
2022/06/13 04:06:02;;;;;;;59.03;19.48;;;12.80;99.90;;;;;;5047423;28;20115;-67
2022/06/13 04:08:36;;;;;;;53.28;19.08;;;12.80;99.90;;;;;;5071482;28;20115;-67
2022/06/13 04:11:25;;;;;;;47.67;18.73;;;12.90;99.90;;;;;;5028746;28;20044;-66
2022/06/13 04:14:01;;;;;;;52.10;18.50;;;12.90;99.90;;;;;;5065024;28;20136;-67
2022/06/13 04:16:48;;;;;;;38.08;16.27;;;12.90;99.90;;;;;;5021824;28;20033;-65
2022/06/13 04:19:48;;;;;;;38.85;13.95;;;12.90;99.90;;;;;;5035849;28;20037;-67
2022/06/13 04:22:20;;;;;;;35.83;12.43;;;13.00;99.90;;;;;;5039102;28;20049;-67
2022/06/13 04:25:03;;;;;;;22.65;9.00;;;13.10;99.90;;;;;;5074186;28;20041;-67
2022/06/13 04:27:53;;;;;;;20.48;8.60;;;13.20;99.90;;;;;;5070012;28;20041;-66
2022/06/13 04:30:24;;;;;;;22.85;7.47;;;13.20;99.90;;;;;;5048508;28;20079;-66
2022/06/13 04:33:12;;;;;;;21.40;6.65;;;13.40;99.90;;;;;;5055697;28;20037;-66
2022/06/13 04:35:39;;;;;;;23.42;7.00;;;13.40;99.90;;;;;;5039819;28;20045;-66
2022/06/13 04:38:09;;;;;;;16.17;6.18;;;13.40;99.90;;;;;;5048313;28;20041;-66
2022/06/13 04:40:40;;;;;;;19.48;6.40;;;13.50;99.90;;;;;;5048718;28;20477;-65
2022/06/13 04:43:12;;;;;;;14.55;5.75;;;13.50;99.90;;;;;;5037855;28;20047;-66
2022/06/13 04:46:00;;;;;;;16.77;6.15;;;13.60;99.90;;;;;;5044466;28;20043;-66
2022/06/13 04:48:26;;;;;;;18.50;5.93;;;13.60;99.90;;;;;;5036770;28;20033;-66
2022/06/13 04:50:56;;;;;;;19.02;6.53;;;13.60;99.90;;;;;;5041156;28;20136;-66
2022/06/13 04:53:31;;;;;;;17.25;6.40;;;13.60;99.90;;;;;;5072393;28;20143;-67
2022/06/13 04:55:59;;;;;;;19.55;5.88;;;13.70;99.90;;;;;;5019163;28;20048;-66
2022/06/13 04:58:34;;;;;;;15.70;5.78;;;13.80;99.90;;;;;;5077374;28;20130;-66
2022/06/13 05:01:05;;;;;;;15.73;5.10;;;13.90;99.90;;;;;;5051270;28;20037;-65
2022/06/13 05:03:37;;;;;;;16.67;5.85;;;13.90;99.90;;;;;;5036754;28;20036;-64
2022/06/13 05:06:13;;;;;;;18.58;5.60;;;14.00;99.90;;;;;;5056474;28;20592;-66
2022/06/13 05:08:40;;;;;;;17.83;5.40;;;14.00;99.90;;;;;;5047454;28;20479;-64
2022/06/13 05:11:24;;;;;;;16.98;5.25;;;14.00;99.90;;;;;;5043913;28;20047;-64
2022/06/13 05:13:54;;;;;;;19.52;5.55;;;14.00;99.90;;;;;;5043671;28;20035;-66
2022/06/13 05:16:49;;;;;;;18.35;6.10;;;14.00;99.90;;;;;;5049630;28;20045;-65
2022/06/13 05:19:41;;;;;;;13.77;4.90;;;14.00;99.90;;;;;;4989511;28;20041;-67
2022/06/13 05:22:31;;;;;;;15.45;5.15;;;14.00;99.90;;;;;;5037116;28;20037;-68
2022/06/13 05:25:43;;;;;;;14.50;4.82;;;14.00;99.90;;;;;;5044065;28;20036;-65
2022/06/13 05:28:10;;;;;;;11.98;4.30;;;14.10;99.90;;;;;;5022296;28;20048;-64
2022/06/13 05:30:38;;;;;;;11.68;4.70;;;14.20;99.90;;;;;;5049579;28;20437;-67
2022/06/13 05:33:04;;;;;;;14.68;4.35;;;14.30;99.90;;;;;;5076236;28;20044;-66
2022/06/13 05:35:32;;;;;;;11.80;4.25;;;14.40;99.90;;;;;;5053274;28;20103;-64
2022/06/13 05:38:01;;;;;;;14.50;4.43;;;14.60;99.90;;;;;;5028635;28;20052;-65
2022/06/13 05:40:27;;;;;;;13.00;4.40;;;14.70;99.90;;;;;;5036395;28;20047;-64
2022/06/13 05:42:52;;;;;;;17.23;3.78;;;14.90;99.90;;;;;;5028091;28;20037;-68
2022/06/13 05:45:22;;;;;;;8.52;3.65;;;15.10;99.90;;;;;;5043416;28;20063;-64
2022/06/13 05:47:50;;;;;;;14.25;4.50;;;15.10;99.90;;;;;;5041043;28;20075;-64
2022/06/13 05:50:19;;;;;;;9.65;3.30;;;15.10;99.90;;;;;;5035548;28;20032;-66
2022/06/13 05:52:45;;;;;;;11.57;4.03;;;15.10;99.90;;;;;;5036200;28;20483;-66
2022/06/13 05:55:11;;;;;;;8.82;3.20;;;15.10;99.90;;;;;;5039279;28;20095;-65
2022/06/13 05:57:38;;;;;;;11.75;3.58;;;15.10;99.90;;;;;;5042826;28;20044;-69
2022/06/13 06:00:07;;;;;;;12.98;3.40;;;15.10;99.90;;;;;;5044077;28;20069;-66
2022/06/13 06:02:33;;;;;;;11.73;3.33;;;15.00;99.90;;;;;;5037429;28;20036;-66
2022/06/13 06:04:59;;;;;;;12.18;3.60;;;15.10;99.90;;;;;;5038744;28;20037;-65
2022/06/13 06:07:25;;;;;;;12.13;2.97;;;15.00;99.90;;;;;;5019179;28;20037;-64
2022/06/13 06:09:51;;;;;;;12.50;3.30;;;15.00;99.90;;;;;;5033042;28;20040;-65
2022/06/13 06:12:16;;;;;;;12.60;3.50;;;15.00;99.90;;;;;;5037934;28;20537;-67
2022/06/13 06:14:42;;;;;;;9.45;3.10;;;15.10;99.90;;;;;;5042105;28;20463;-65
2022/06/13 06:17:08;;;;;;;9.90;3.03;;;15.30;99.90;;;;;;5045337;28;20036;-67
2022/06/13 06:19:33;;;;;;;13.52;3.53;;;15.40;99.90;;;;;;5036391;28;20506;-72
2022/06/13 06:21:59;;;;;;;14.68;3.42;;;15.50;99.90;;;;;;5039839;28;20036;-67
2022/06/13 06:24:25;;;;;;;14.65;3.13;;;15.60;99.90;;;;;;5029853;28;20156;-66
2022/06/13 06:26:50;;;;;;;9.65;3.17;;;15.60;99.90;;;;;;5039093;28;20040;-66
2022/06/13 06:29:16;;;;;;;11.98;3.58;;;15.70;99.90;;;;;;5051647;28;20080;-64
2022/06/13 06:31:41;;;;;;;11.52;3.13;;;15.80;99.90;;;;;;5051181;28;20048;-65
2022/06/13 06:34:07;;;;;;;13.57;3.42;;;15.90;99.90;;;;;;5051115;28;20510;-64
2022/06/13 06:36:33;;;;;;;13.68;3.33;;;15.90;99.90;;;;;;5049067;28;20431;-65
2022/06/13 06:38:58;;;;;;;10.82;3.38;;;15.80;99.90;;;;;;5047682;28;20040;-67
2022/06/13 06:41:24;;;;;;;9.43;3.30;;;15.70;99.90;;;;;;5048300;28;20068;-66
2022/06/13 06:43:49;;;;;;;11.20;3.55;;;15.50;99.90;;;;;;5044471;28;20082;-68
2022/06/13 06:46:15;;;;;;;19.02;3.70;;;15.40;99.90;;;;;;5052417;28;20112;-68
2022/06/13 06:48:41;;;;;;;9.93;2.22;;;15.20;99.90;;;;;;5033539;28;20041;-67
2022/06/13 06:51:09;;;;;;;6.80;1.80;;;14.60;99.90;;;;;;5036486;28;20040;-68
2022/06/13 07:01:48;;;;;;;9.30;3.08;;;13.20;99.90;;;;;;5045420;28;20048;-67
2022/06/13 07:04:14;;;;;;;11.40;3.30;;;13.00;99.90;;;;;;5036023;28;20033;-66
2022/06/13 07:06:40;;;;;;;9.35;2.50;;;13.00;99.90;;;;;;5044063;28;20068;-66
2022/06/13 07:09:06;;;;;;;7.43;2.42;;;13.00;99.90;;;;;;5043661;28;20033;-65
2022/06/13 07:14:18;;;;;;;5.00;2.30;;;13.40;99.90;;;;;;5050341;28;20102;-66
2022/06/13 07:16:43;;;;;;;7.93;1.65;;;13.50;99.90;;;;;;5046261;28;20387;-68
2022/06/13 07:19:09;;;;;;;7.22;2.03;;;13.70;99.90;;;;;;5044867;28;20076;-66
2022/06/13 07:21:35;;;;;;;6.20;1.85;;;13.90;99.90;;;;;;5043971;28;20032;-67
2022/06/13 07:24:00;;;;;;;5.75;2.15;;;14.00;99.90;;;;;;5040309;28;20086;-66
2022/06/13 07:26:26;;;;;;;6.53;2.08;;;14.00;99.90;;;;;;5032589;28;20398;-67
2022/06/13 07:28:52;;;;;;;6.10;1.60;;;14.10;99.90;;;;;;5041908;28;20048;-70
2022/06/13 07:31:20;;;;;;;6.97;2.28;;;14.20;99.90;;;;;;5036929;28;20383;-68
2022/06/13 07:33:48;;;;;;;12.32;2.95;;;14.50;99.90;;;;;;5041945;28;20037;-68
2022/06/13 07:36:15;;;;;;;10.07;3.17;;;14.60;99.90;;;;;;5051802;28;20115;-64
2022/06/13 07:38:40;;;;;;;11.63;3.10;;;14.70;99.90;;;;;;5048720;28;20531;-68
2022/06/13 07:41:06;;;;;;;6.80;3.00;;;14.80;99.90;;;;;;5034603;28;20037;-66
2022/06/13 07:43:36;;;;;;;8.85;3.20;;;15.00;99.90;;;;;;5046386;28;20024;-68
2022/06/13 07:46:05;;;;;;;11.25;2.83;;;15.10;99.90;;;;;;5045623;28;20052;-68
2022/06/13 07:48:32;;;;;;;12.38;3.50;;;15.40;99.90;;;;;;5051502;28;20162;-71
2022/06/13 07:50:59;;;;;;;9.23;3.20;;;15.50;99.90;;;;;;5042942;28;20091;-64
2022/06/13 07:53:25;;;;;;;11.88;3.72;;;15.70;99.90;;;;;;5071052;28;20056;-66
2022/06/13 07:55:50;;;;;;;12.10;3.30;;;15.60;99.90;;;;;;5036903;28;20029;-65
2022/06/13 07:58:21;;;;;;;13.55;3.33;;;15.60;99.90;;;;;;5039822;28;20435;-66
2022/06/13 08:00:49;;;;;;;15.23;3.55;;;15.60;99.90;;;;;;5042156;28;20048;-68
2022/06/13 08:03:24;;;;;;;13.50;2.92;;;15.70;99.90;;;;;;5068353;28;20043;-69
2022/06/13 08:05:51;;;;;;;9.85;3.08;;;16.00;99.90;;;;;;5038808;28;20109;-70
2022/06/13 08:08:17;;;;;;;8.95;2.15;;;16.20;99.90;;;;;;5037071;28;20037;-70
2022/06/13 08:10:43;;;;;;;7.63;2.40;;;16.20;99.90;;;;;;5021235;28;20048;-68
2022/06/13 08:13:14;;;;;;;9.65;2.70;;;15.90;99.90;;;;;;5042896;28;20029;-67
2022/06/13 08:15:40;;;;;;;10.15;2.85;;;15.60;99.90;;;;;;5043993;28;20039;-70
2022/06/13 08:18:06;;;;;;;8.88;2.80;;;15.50;99.90;;;;;;5022581;28;20422;-64
2022/06/13 08:20:33;;;;;;;8.70;3.13;;;15.30;99.90;;;;;;5035818;28;20068;-71
2022/06/13 08:23:00;;;;;;;11.43;3.22;;;15.00;99.90;;;;;;5038201;28;20032;-68
2022/06/13 08:25:29;;;;;;;11.02;2.78;;;14.90;99.90;;;;;;5027216;28;20436;-64
2022/06/13 08:27:57;;;;;;;11.52;2.80;;;14.80;99.90;;;;;;5040603;28;20115;-66
2022/06/13 08:30:23;;;;;;;11.38;3.15;;;14.80;99.90;;;;;;5043024;28;20056;-69
2022/06/13 08:32:48;;;;;;;7.68;2.40;;;15.00;99.90;;;;;;5027245;28;20094;-63
2022/06/13 08:35:14;;;;;;;7.93;2.30;;;15.30;99.90;;;;;;5038269;28;20407;-66
2022/06/13 08:37:40;;;;;;;10.90;2.35;;;15.60;99.90;;;;;;5045637;28;20033;-68
2022/06/13 08:40:08;;;;;;;7.38;2.33;;;15.70;99.90;;;;;;5037681;28;20045;-66
2022/06/13 08:42:40;;;;;;;9.05;2.00;;;15.70;99.90;;;;;;5039393;28;20052;-70
2022/06/13 08:45:15;;;;;;;10.25;2.03;;;15.70;99.90;;;;;;5044869;28;20040;-70
2022/06/13 08:48:06;;;;;;;8.68;2.75;;;15.70;99.90;;;;;;5048576;28;20047;-68
2022/06/13 08:50:53;;;;;;;6.43;1.90;;;15.80;99.90;;;;;;5063745;28;20033;-66
2022/06/13 08:53:23;;;;;;;5.53;1.70;;;16.00;99.90;;;;;;5043470;28;20852;-65
2022/06/13 08:55:53;;;;;;;9.98;2.55;;;16.10;99.90;;;;;;5043027;28;20041;-70
2022/06/13 08:58:22;;;;;;;8.40;1.90;;;16.20;99.90;;;;;;5044557;28;20463;-69
2022/06/13 09:00:57;;;;;;;14.45;2.20;;;16.40;99.90;;;;;;5025910;28;20067;-67
2022/06/13 09:03:29;;;;;;;6.32;2.10;;;16.40;99.90;;;;;;5049754;28;20483;-70
2022/06/13 09:06:11;;;;;;;14.15;2.30;;;16.40;99.90;;;;;;5038305;28;20040;-67
2022/06/13 09:08:50;;;;;;;7.80;2.08;;;16.60;99.90;;;;;;5038445;28;20079;-68
2022/06/13 09:11:18;;;;;;;5.00;1.50;;;16.40;99.90;;;;;;5032774;28;20150;-66
2022/06/13 09:14:02;;;;;;;10.32;2.38;;;16.30;99.90;;;;;;5035375;28;20035;-69
2022/06/13 09:16:30;;;;;;;9.93;2.30;;;15.90;99.90;;;;;;5032564;28;20048;-67
2022/06/13 09:19:07;;;;;;;5.53;2.00;;;15.60;99.90;;;;;;5038668;28;20048;-65
2022/06/13 09:22:14;;;;;;;10.65;2.70;;;15.50;99.90;;;;;;5016855;28;20454;-65
2022/06/13 09:24:39;;;;;;;6.93;2.88;;;15.60;99.90;;;;;;5030953;28;20380;-69
2022/06/13 09:27:13;;;;;;;7.60;2.08;;;15.90;99.90;;;;;;5044443;28;20092;-67
2022/06/13 09:29:51;;;;;;;8.02;2.83;;;16.20;99.90;;;;;;5030977;28;20040;-70
2022/06/13 09:32:22;;;;;;;11.85;2.40;;;16.40;99.90;;;;;;5065709;28;20128;-66
2022/06/13 09:35:22;;;;;;;8.32;2.40;;;16.50;99.90;;;;;;5054091;28;20277;-67
2022/06/13 09:37:53;;;;;;;7.85;2.35;;;16.10;99.90;;;;;;5036305;28;20098;-68
2022/06/13 09:40:32;;;;;;;13.27;2.33;;;15.90;99.90;;;;;;5034437;28;20052;-68
2022/06/13 09:43:15;;;;;;;7.35;2.60;;;16.10;99.90;;;;;;5037056;28;20045;-66
2022/06/13 09:45:41;;;;;;;7.30;2.45;;;16.50;99.90;;;;;;5029052;28;20052;-68
2022/06/13 09:48:30;;;;;;;9.13;2.53;;;16.60;99.90;;;;;;5042021;28;20037;-67
2022/06/13 09:51:21;;;;;;;11.25;1.90;;;16.80;99.90;;;;;;5039496;28;20052;-67
2022/06/13 09:54:10;;;;;;;6.75;1.75;;;17.00;99.90;;;;;;5039443;28;20083;-66
2022/06/13 09:57:02;;;;;;;11.40;2.00;;;16.60;99.90;;;;;;4984403;28;20084;-66
2022/06/13 09:59:31;;;;;;;;;;;16.40;99.90;;;;;;5040459;28;20037;-68
2022/06/13 10:02:21;;;;;;;13.10;2.63;;;16.60;99.90;;;;;;5065611;28;19924;-67
2022/06/13 10:05:01;;;;;;;9.57;2.08;;;16.80;99.90;;;;;;5032652;28;20111;-70
2022/06/13 10:07:45;;;;;;;7.47;1.70;;;16.50;99.90;;;;;;5044973;28;20048;-65
2022/06/13 10:10:29;;;;;;;10.95;2.13;;;16.20;99.90;;;;;;5034922;28;20052;-68
2022/06/13 10:12:57;;;;;;;9.43;2.25;;;16.30;99.90;;;;;;5032778;28;20045;-69
2022/06/13 10:15:45;;;;;;;11.50;2.30;;;16.70;99.90;;;;;;5023033;28;20123;-71
2022/06/13 10:18:17;;;;;;;8.50;2.33;;;16.70;99.90;;;;;;5037918;28;20501;-71
2022/06/13 10:20:53;;;;;;;9.95;2.17;;;16.50;99.90;;;;;;5039044;28;20128;-65
2022/06/13 10:23:47;;;;;;;14.00;2.13;;;16.30;99.90;;;;;;5018092;28;20656;-69
2022/06/13 10:26:37;;;;;;;15.68;2.45;;;16.20;99.90;;;;;;5037673;28;20502;-68
2022/06/13 10:29:17;;;;;;;8.85;2.13;;;16.10;99.90;;;;;;5043314;28;20055;-68
2022/06/13 10:32:15;;;;;;;11.35;1.98;;;16.10;99.90;;;;;;5033775;28;20063;-64
2022/06/13 10:35:02;;;;;;;9.15;1.73;;;16.20;99.90;;;;;;5001562;28;20500;-67
2022/06/13 10:37:50;;;;;;;7.60;2.10;;;16.10;99.90;;;;;;5028861;28;20041;-71
2022/06/13 10:40:16;;;;;;;7.97;2.35;;;15.80;99.90;;;;;;5032162;28;20045;-68
2022/06/13 10:42:42;;;;;;;13.30;2.90;;;15.60;99.90;;;;;;5037126;28;20570;-69
2022/06/13 10:45:11;;;;;;;14.50;2.33;;;15.90;99.90;;;;;;5031039;28;20029;-67
2022/06/13 10:47:55;;;;;;;10.43;2.28;;;16.30;99.90;;;;;;5047058;28;20037;-71
2022/06/13 10:50:44;;;;;;;11.30;2.80;;;16.60;99.90;;;;;;5057501;28;20487;-68
2022/06/13 10:53:30;;;;;;;14.57;2.72;;;16.30;99.90;;;;;;5084099;28;20526;-68
2022/06/13 10:55:58;;;;;;;16.55;3.20;;;15.90;99.90;;;;;;5068945;28;20091;-70
2022/06/13 10:58:30;;;;;;;8.13;2.20;;;16.10;99.90;;;;;;5034236;28;20044;-66
2022/06/13 11:01:12;;;;;;;11.65;2.20;;;16.40;99.90;;;;;;5039787;28;20032;-69
2022/06/13 11:04:03;;;;;;;10.52;2.83;;;16.30;99.90;;;;;;5034558;28;20402;-67
2022/06/13 11:06:43;;;;;;;12.27;2.67;;;16.40;99.90;;;;;;5036575;28;20068;-68
2022/06/13 11:09:22;;;;;;;14.27;3.33;;;16.80;99.90;;;;;;5037716;28;20087;-65
2022/06/13 11:11:54;;;;;;;15.23;2.53;;;17.30;99.90;;;;;;5066856;28;20075;-65
2022/06/13 11:23:26;;;;;;;11.17;2.30;;;17.20;99.90;;;;;;5025183;28;20076;-68
2022/06/13 11:25:58;;;;;;;10.55;2.10;;;16.90;99.90;;;;;;5037141;28;20048;-65
2022/06/13 11:28:27;;;;;;;7.85;2.80;;;16.50;99.90;;;;;;5035801;28;20483;-67
2022/06/13 11:31:11;;;;;;;9.13;2.42;;;16.30;99.90;;;;;;5034025;28;20047;-65
2022/06/13 11:33:40;;;;;;;9.07;2.40;;;16.30;99.90;;;;;;5045817;28;20061;-65
2022/06/13 11:36:14;;;;;;;10.90;2.60;;;16.30;99.90;;;;;;5056254;28;20051;-66
2022/06/13 11:38:51;;;;;;;10.05;2.03;;;16.40;99.90;;;;;;5044987;28;20049;-66
2022/06/13 11:41:23;;;;;;;13.15;2.60;;;16.50;99.90;;;;;;5031406;28;20116;-65
2022/06/13 11:44:05;;;;;;;11.88;2.78;;;16.40;99.90;;;;;;5026695;28;20132;-65
2022/06/13 11:47:02;;;;;;;10.90;2.70;;;16.30;99.90;;;;;;5020059;28;20052;-65
2022/06/13 11:49:32;;;;;;;12.52;2.80;;;16.50;99.90;;;;;;5027772;28;20052;-70
2022/06/13 11:52:13;;;;;;;14.23;2.67;;;16.70;99.90;;;;;;5046209;28;20049;-67
2022/06/13 11:54:48;;;;;;;11.13;2.20;;;16.90;99.90;;;;;;5034525;28;20443;-68
2022/06/13 11:57:14;;;;;;;5.72;1.60;;;16.90;99.90;;;;;;5034687;28;20084;-67
2022/06/13 12:00:01;;;;;;;12.48;2.30;;;16.90;99.90;;;;;;5040757;28;20072;-66
2022/06/13 12:02:43;;;;;;;15.13;2.85;;;16.80;99.90;;;;;;5029930;28;20041;-66
2022/06/13 12:05:34;;;;;;;13.05;2.85;;;16.90;99.90;;;;;;5025136;28;20047;-67
2022/06/13 12:08:21;;;;;;;10.02;2.50;;;16.90;99.90;;;;;;5054208;28;20426;-69
2022/06/13 12:11:02;;;;;;;5.97;1.77;;;16.60;99.90;;;;;;5044134;28;20048;-70
2022/06/13 12:13:34;;;;;;;13.27;2.63;;;16.90;99.90;;;;;;5035606;28;20048;-69
2022/06/13 12:16:07;;;;;;;12.40;2.45;;;17.20;99.90;;;;;;5032879;28;20037;-68
2022/06/13 12:18:57;;;;;;;8.02;1.58;;;17.50;99.90;;;;;;5037886;28;20064;-67
2022/06/13 12:21:26;;;;;;;13.30;2.53;;;17.40;99.90;;;;;;5028989;28;20037;-71
2022/06/13 12:24:14;;;;;;;10.48;2.15;;;17.30;99.90;;;;;;5031397;28;21249;-64
2022/06/13 12:26:46;;;;;;;10.70;2.72;;;17.20;99.90;;;;;;5031546;28;20543;-64
2022/06/13 12:29:43;;;;;;;9.00;2.40;;;17.00;99.90;;;;;;5036260;28;20052;-67
2022/06/13 12:32:20;;;;;;;16.33;3.53;;;16.90;99.90;;;;;;5040113;28;20048;-65
2022/06/13 12:35:05;;;;;;;12.25;2.60;;;16.70;99.90;;;;;;5032152;28;20686;-68
2022/06/13 12:38:17;;;;;;;7.70;2.38;;;16.70;99.90;;;;;;5040563;28;20045;-66
2022/06/13 12:40:45;;;;;;;9.57;2.57;;;16.90;99.90;;;;;;4992201;28;20130;-65
2022/06/13 12:43:17;;;;;;;12.55;2.60;;;17.00;99.90;;;;;;5053849;28;20178;-66
2022/06/13 12:46:11;;;;;;;14.00;2.70;;;17.10;99.90;;;;;;5038027;28;20040;-62
2022/06/13 12:49:04;;;;;;;10.32;2.58;;;17.20;99.90;;;;;;5026480;28;20315;-67
2022/06/13 12:51:42;;;;;;;11.90;2.40;;;17.10;99.90;;;;;;5022883;28;20430;-65
2022/06/13 12:54:33;;;;;;;9.25;2.67;;;17.10;99.90;;;;;;5035708;28;20445;-65
2022/06/13 12:57:24;;;;;;;11.88;2.45;;;17.00;99.90;;;;;;5031448;28;20479;-69
2022/06/13 13:00:09;;;;;;;7.03;2.13;;;16.90;99.90;;;;;;5045864;28;20076;-70
2022/06/13 13:02:53;;;;;;;11.88;2.50;;;17.00;99.90;;;;;;5040409;28;20116;-66
2022/06/13 13:05:36;;;;;;;13.65;2.08;;;17.30;99.90;;;;;;5040476;28;20048;-70
2022/06/13 13:08:29;;;;;;;10.05;2.85;;;17.40;99.90;;;;;;5029834;28;20041;-66
2022/06/13 13:11:21;;;;;;;11.85;2.30;;;17.30;99.90;;;;;;5033031;28;20487;-70
2022/06/13 13:14:19;;;;;;;14.77;3.17;;;17.10;99.90;;;;;;5038753;28;20115;-63
2022/06/13 13:17:12;;;;;;;9.63;2.42;;;16.90;99.90;;;;;;5042126;28;20478;-65
2022/06/13 13:20:06;;;;;;;11.88;2.65;;;17.10;99.90;;;;;;5018687;28;20053;-68
2022/06/13 13:22:59;;;;;;;8.05;2.45;;;17.60;99.90;;;;;;5021389;28;20040;-64
2022/06/13 13:26:06;;;;;;;11.40;3.28;;;17.80;99.90;;;;;;5034474;28;20037;-67
2022/06/13 13:29:09;;;;;;;7.78;2.20;;;17.90;99.90;;;;;;5031483;28;20076;-65
2022/06/13 13:31:51;;;;;;;9.63;2.35;;;17.90;99.90;;;;;;5035200;28;20040;-68
2022/06/13 13:34:24;;;;;;;11.05;2.38;;;18.00;99.90;;;;;;5036028;28;20075;-67
2022/06/13 13:36:56;;;;;;;;;;;18.20;99.90;;;;;;5033937;28;20056;-68
2022/06/13 13:39:35;;;;;;;;;;;18.20;99.90;;;;;;5035489;28;20428;-66
2022/06/13 13:42:07;;;;;;;11.60;2.75;;;17.70;99.90;;;;;;5069928;28;19943;-67
2022/06/13 13:44:39;;;;;;;8.30;2.38;;;17.50;99.90;;;;;;5033309;28;20049;-74
2022/06/13 13:47:09;;;;;;;9.77;2.10;;;17.30;99.90;;;;;;5058109;28;20530;-73